sensor_id;sensor_type;location;lat;lon;timestamp;P1;durP1;ratioP1;P2;durP2;ratioP2
37069;SDS011;22984;48.862;9.320;2022-10-04T00:01:19;415.00;;;30.63;;
37069;SDS011;22984;48.862;9.320;2022-10-04T00:03:48;477.73;;;34.80;;
37069;SDS011;22984;48.862;9.320;2022-10-04T00:06:18;383.45;;;34.05;;
37069;SDS011;22984;48.862;9.320;2022-10-04T00:11:18;137.68;;;25.20;;
37069;SDS011;22984;48.862;9.320;2022-10-04T00:13:46;81.47;;;19.75;;
37069;SDS011;22984;48.862;9.320;2022-10-04T00:16:18;68.28;;;19.80;;
37069;SDS011;22984;48.862;9.320;2022-10-04T00:18:45;61.83;;;20.85;;
37069;SDS011;22984;48.862;9.320;2022-10-04T00:21:12;62.10;;;22.33;;
37069;SDS011;22984;48.862;9.320;2022-10-04T00:28:41;76.53;;;25.98;;
37069;SDS011;22984;48.862;9.320;2022-10-04T00:31:08;79.22;;;23.88;;
37069;SDS011;22984;48.862;9.320;2022-10-04T00:33:35;58.13;;;21.23;;
37069;SDS011;22984;48.862;9.320;2022-10-04T00:42:16;47.72;;;21.77;;
37069;SDS011;22984;48.862;9.320;2022-10-04T00:44:23;51.42;;;19.77;;
37069;SDS011;22984;48.862;9.320;2022-10-04T00:46:53;50.05;;;19.23;;
37069;SDS011;22984;48.862;9.320;2022-10-04T00:49:20;28.10;;;16.25;;
37069;SDS011;22984;48.862;9.320;2022-10-04T00:51:59;44.30;;;21.08;;
37069;SDS011;22984;48.862;9.320;2022-10-04T00:57:11;47.83;;;22.00;;
37069;SDS011;22984;48.862;9.320;2022-10-04T00:59:44;37.53;;;19.38;;
37069;SDS011;22984;48.862;9.320;2022-10-04T01:02:30;43.88;;;20.67;;
37069;SDS011;22984;48.862;9.320;2022-10-04T01:07:43;46.10;;;22.05;;
37069;SDS011;22984;48.862;9.320;2022-10-04T01:10:21;38.78;;;19.63;;
37069;SDS011;22984;48.862;9.320;2022-10-04T01:12:54;28.75;;;17.05;;
37069;SDS011;22984;48.862;9.320;2022-10-04T01:15:30;26.27;;;15.30;;
37069;SDS011;22984;48.862;9.320;2022-10-04T01:20:54;26.33;;;15.30;;
37069;SDS011;22984;48.862;9.320;2022-10-04T01:23:37;26.25;;;15.80;;
37069;SDS011;22984;48.862;9.320;2022-10-04T01:26:06;23.83;;;14.77;;
37069;SDS011;22984;48.862;9.320;2022-10-04T01:31:25;36.80;;;18.88;;
37069;SDS011;22984;48.862;9.320;2022-10-04T01:33:52;38.13;;;19.27;;
37069;SDS011;22984;48.862;9.320;2022-10-04T01:36:18;36.45;;;18.42;;
37069;SDS011;22984;48.862;9.320;2022-10-04T01:38:44;37.88;;;18.70;;
37069;SDS011;22984;48.862;9.320;2022-10-04T01:41:10;43.60;;;19.00;;
37069;SDS011;22984;48.862;9.320;2022-10-04T01:43:38;35.45;;;18.23;;
37069;SDS011;22984;48.862;9.320;2022-10-04T01:46:12;41.22;;;18.75;;
37069;SDS011;22984;48.862;9.320;2022-10-04T01:48:40;38.70;;;18.30;;
37069;SDS011;22984;48.862;9.320;2022-10-04T01:51:27;31.15;;;15.75;;
37069;SDS011;22984;48.862;9.320;2022-10-04T01:54:05;24.00;;;14.38;;
37069;SDS011;22984;48.862;9.320;2022-10-04T01:56:33;18.85;;;12.45;;
37069;SDS011;22984;48.862;9.320;2022-10-04T01:59:03;17.05;;;11.10;;
37069;SDS011;22984;48.862;9.320;2022-10-04T02:01:32;9.57;;;8.43;;
37069;SDS011;22984;48.862;9.320;2022-10-04T02:04:16;12.30;;;8.90;;
37069;SDS011;22984;48.862;9.320;2022-10-04T02:06:44;13.93;;;9.05;;
37069;SDS011;22984;48.862;9.320;2022-10-04T02:09:15;14.85;;;10.38;;
37069;SDS011;22984;48.862;9.320;2022-10-04T02:11:43;14.77;;;10.10;;
37069;SDS011;22984;48.862;9.320;2022-10-04T02:14:10;25.50;;;13.90;;
37069;SDS011;22984;48.862;9.320;2022-10-04T02:16:39;28.75;;;15.68;;
37069;SDS011;22984;48.862;9.320;2022-10-04T02:19:07;28.83;;;16.48;;
37069;SDS011;22984;48.862;9.320;2022-10-04T02:21:34;37.83;;;18.50;;
37069;SDS011;22984;48.862;9.320;2022-10-04T02:24:01;37.20;;;18.58;;
37069;SDS011;22984;48.862;9.320;2022-10-04T02:26:27;41.03;;;19.80;;
37069;SDS011;22984;48.862;9.320;2022-10-04T02:28:53;46.75;;;20.25;;
37069;SDS011;22984;48.862;9.320;2022-10-04T02:31:22;34.03;;;17.43;;
37069;SDS011;22984;48.862;9.320;2022-10-04T02:34:07;30.80;;;15.82;;
37069;SDS011;22984;48.862;9.320;2022-10-04T02:36:33;52.15;;;20.35;;
37069;SDS011;22984;48.862;9.320;2022-10-04T02:39:01;36.25;;;17.52;;
37069;SDS011;22984;48.862;9.320;2022-10-04T02:46:27;337.02;;;32.85;;
37069;SDS011;22984;48.862;9.320;2022-10-04T02:48:54;622.40;;;45.70;;
37069;SDS011;22984;48.862;9.320;2022-10-04T02:51:24;839.93;;;49.47;;
37069;SDS011;22984;48.862;9.320;2022-10-04T02:53:54;650.63;;;43.88;;
37069;SDS011;22984;48.862;9.320;2022-10-04T02:56:22;684.35;;;49.83;;
37069;SDS011;22984;48.862;9.320;2022-10-04T02:58:49;525.33;;;40.35;;
37069;SDS011;22984;48.862;9.320;2022-10-04T03:01:26;472.03;;;42.97;;
37069;SDS011;22984;48.862;9.320;2022-10-04T03:03:52;328.10;;;32.15;;
37069;SDS011;22984;48.862;9.320;2022-10-04T03:06:19;207.60;;;27.08;;
37069;SDS011;22984;48.862;9.320;2022-10-04T03:11:12;176.90;;;26.00;;
37069;SDS011;22984;48.862;9.320;2022-10-04T03:13:46;88.23;;;21.40;;
37069;SDS011;22984;48.862;9.320;2022-10-04T03:16:13;63.95;;;18.20;;
37069;SDS011;22984;48.862;9.320;2022-10-04T03:18:40;64.13;;;17.17;;
37069;SDS011;22984;48.862;9.320;2022-10-04T03:21:07;48.17;;;17.47;;
37069;SDS011;22984;48.862;9.320;2022-10-04T03:23:34;22.23;;;13.25;;
37069;SDS011;22984;48.862;9.320;2022-10-04T03:28:45;18.05;;;11.38;;
37069;SDS011;22984;48.862;9.320;2022-10-04T03:31:11;19.55;;;11.88;;
37069;SDS011;22984;48.862;9.320;2022-10-04T03:33:38;20.40;;;10.68;;
37069;SDS011;22984;48.862;9.320;2022-10-04T03:36:04;27.63;;;14.43;;
37069;SDS011;22984;48.862;9.320;2022-10-04T03:38:31;31.93;;;14.57;;
37069;SDS011;22984;48.862;9.320;2022-10-04T03:40:59;33.75;;;17.00;;
37069;SDS011;22984;48.862;9.320;2022-10-04T03:43:27;33.67;;;17.42;;
37069;SDS011;22984;48.862;9.320;2022-10-04T03:45:55;39.20;;;18.13;;
37069;SDS011;22984;48.862;9.320;2022-10-04T03:48:33;43.70;;;18.67;;
37069;SDS011;22984;48.862;9.320;2022-10-04T03:51:01;45.33;;;19.00;;
37069;SDS011;22984;48.862;9.320;2022-10-04T03:53:32;62.15;;;20.98;;
37069;SDS011;22984;48.862;9.320;2022-10-04T03:56:17;55.70;;;19.73;;
37069;SDS011;22984;48.862;9.320;2022-10-04T03:58:43;89.82;;;20.55;;
37069;SDS011;22984;48.862;9.320;2022-10-04T04:04:10;46.00;;;17.73;;
37069;SDS011;22984;48.862;9.320;2022-10-04T04:06:36;51.50;;;18.40;;
37069;SDS011;22984;48.862;9.320;2022-10-04T04:09:05;45.63;;;19.33;;
37069;SDS011;22984;48.862;9.320;2022-10-04T04:11:32;41.53;;;18.75;;
37069;SDS011;22984;48.862;9.320;2022-10-04T04:14:02;35.80;;;17.00;;
37069;SDS011;22984;48.862;9.320;2022-10-04T04:16:31;31.23;;;16.10;;
37069;SDS011;22984;48.862;9.320;2022-10-04T04:18:59;26.17;;;14.52;;
37069;SDS011;22984;48.862;9.320;2022-10-04T04:21:26;35.40;;;16.60;;
37069;SDS011;22984;48.862;9.320;2022-10-04T04:23:54;64.43;;;17.88;;
37069;SDS011;22984;48.862;9.320;2022-10-04T04:26:44;70.75;;;19.58;;
37069;SDS011;22984;48.862;9.320;2022-10-04T04:29:29;49.80;;;17.50;;
37069;SDS011;22984;48.862;9.320;2022-10-04T04:31:58;43.25;;;17.83;;
37069;SDS011;22984;48.862;9.320;2022-10-04T04:34:26;65.88;;;18.08;;
37069;SDS011;22984;48.862;9.320;2022-10-04T04:37:00;69.32;;;18.67;;
37069;SDS011;22984;48.862;9.320;2022-10-04T04:39:30;69.23;;;19.53;;
37069;SDS011;22984;48.862;9.320;2022-10-04T04:42:15;48.13;;;17.30;;
37069;SDS011;22984;48.862;9.320;2022-10-04T04:45:17;43.97;;;17.30;;
37069;SDS011;22984;48.862;9.320;2022-10-04T04:50:14;79.05;;;19.58;;
37069;SDS011;22984;48.862;9.320;2022-10-04T04:53:02;32.42;;;13.93;;
37069;SDS011;22984;48.862;9.320;2022-10-04T04:55:33;32.92;;;15.07;;
37069;SDS011;22984;48.862;9.320;2022-10-04T04:58:01;38.28;;;17.08;;
37069;SDS011;22984;48.862;9.320;2022-10-04T05:00:30;35.25;;;16.38;;
37069;SDS011;22984;48.862;9.320;2022-10-04T05:02:58;33.25;;;17.58;;
37069;SDS011;22984;48.862;9.320;2022-10-04T05:05:28;31.50;;;16.80;;
37069;SDS011;22984;48.862;9.320;2022-10-04T05:08:14;36.33;;;17.10;;
37069;SDS011;22984;48.862;9.320;2022-10-04T05:13:09;33.65;;;17.20;;
37069;SDS011;22984;48.862;9.320;2022-10-04T05:15:36;41.15;;;18.13;;
37069;SDS011;22984;48.862;9.320;2022-10-04T05:20:50;41.20;;;14.82;;
37069;SDS011;22984;48.862;9.320;2022-10-04T05:23:17;102.55;;;17.33;;
37069;SDS011;22984;48.862;9.320;2022-10-04T05:25:43;235.10;;;21.27;;
37069;SDS011;22984;48.862;9.320;2022-10-04T05:28:10;272.63;;;26.05;;
37069;SDS011;22984;48.862;9.320;2022-10-04T05:33:12;711.95;;;48.13;;
37069;SDS011;22984;48.862;9.320;2022-10-04T05:40:46;853.72;;;48.63;;
37069;SDS011;22984;48.862;9.320;2022-10-04T05:45:47;715.08;;;41.50;;
37069;SDS011;22984;48.862;9.320;2022-10-04T05:48:14;593.80;;;39.00;;
37069;SDS011;22984;48.862;9.320;2022-10-04T05:50:41;585.83;;;44.10;;
37069;SDS011;22984;48.862;9.320;2022-10-04T05:53:26;360.92;;;32.10;;
37069;SDS011;22984;48.862;9.320;2022-10-04T06:01:31;64.28;;;21.25;;
37069;SDS011;22984;48.862;9.320;2022-10-04T06:04:03;35.97;;;18.17;;
37069;SDS011;22984;48.862;9.320;2022-10-04T06:06:41;35.42;;;16.95;;
37069;SDS011;22984;48.862;9.320;2022-10-04T06:14:34;29.50;;;15.90;;
37069;SDS011;22984;48.862;9.320;2022-10-04T06:19:50;29.97;;;16.60;;
37069;SDS011;22984;48.862;9.320;2022-10-04T06:22:20;28.48;;;16.42;;
37069;SDS011;22984;48.862;9.320;2022-10-04T06:24:59;28.38;;;16.45;;
37069;SDS011;22984;48.862;9.320;2022-10-04T06:50:49;16.50;;;11.73;;
37069;SDS011;22984;48.862;9.320;2022-10-04T06:56:16;18.63;;;11.60;;
37069;SDS011;22984;48.862;9.320;2022-10-04T07:09:46;10.35;;;7.75;;
37069;SDS011;22984;48.862;9.320;2022-10-04T07:12:12;8.93;;;7.23;;
37069;SDS011;22984;48.862;9.320;2022-10-04T07:14:45;12.48;;;7.78;;
37069;SDS011;22984;48.862;9.320;2022-10-04T07:17:16;10.73;;;8.00;;
37069;SDS011;22984;48.862;9.320;2022-10-04T07:19:44;10.57;;;7.90;;
37069;SDS011;22984;48.862;9.320;2022-10-04T07:25:02;10.43;;;7.43;;
37069;SDS011;22984;48.862;9.320;2022-10-04T07:27:35;10.73;;;7.07;;
37069;SDS011;22984;48.862;9.320;2022-10-04T07:30:08;10.40;;;7.32;;
37069;SDS011;22984;48.862;9.320;2022-10-04T07:32:35;10.27;;;6.40;;
37069;SDS011;22984;48.862;9.320;2022-10-04T07:42:50;10.23;;;5.90;;
37069;SDS011;22984;48.862;9.320;2022-10-04T07:45:22;6.20;;;5.57;;
37069;SDS011;22984;48.862;9.320;2022-10-04T07:47:50;6.60;;;5.85;;
37069;SDS011;22984;48.862;9.320;2022-10-04T07:50:20;7.32;;;5.80;;
37069;SDS011;22984;48.862;9.320;2022-10-04T07:52:48;14.38;;;5.95;;
37069;SDS011;22984;48.862;9.320;2022-10-04T07:55:27;9.88;;;6.18;;
37069;SDS011;22984;48.862;9.320;2022-10-04T08:05:44;8.32;;;4.68;;
37069;SDS011;22984;48.862;9.320;2022-10-04T08:13:49;6.75;;;5.90;;
37069;SDS011;22984;48.862;9.320;2022-10-04T08:19:05;6.35;;;4.35;;
37069;SDS011;22984;48.862;9.320;2022-10-04T08:24:35;6.07;;;3.55;;
37069;SDS011;22984;48.862;9.320;2022-10-04T08:27:15;7.40;;;4.13;;
37069;SDS011;22984;48.862;9.320;2022-10-04T08:29:52;7.23;;;3.13;;
37069;SDS011;22984;48.862;9.320;2022-10-04T08:40:50;6.47;;;2.83;;
37069;SDS011;22984;48.862;9.320;2022-10-04T08:55:48;6.10;;;2.50;;
37069;SDS011;22984;48.862;9.320;2022-10-04T09:12:53;4.38;;;2.42;;
37069;SDS011;22984;48.862;9.320;2022-10-04T09:21:42;5.93;;;3.30;;
37069;SDS011;22984;48.862;9.320;2022-10-04T09:46:51;6.47;;;2.40;;
37069;SDS011;22984;48.862;9.320;2022-10-04T09:52:22;6.07;;;2.20;;
37069;SDS011;22984;48.862;9.320;2022-10-04T10:09:08;4.10;;;1.90;;
37069;SDS011;22984;48.862;9.320;2022-10-04T10:19:26;2.50;;;1.50;;
37069;SDS011;22984;48.862;9.320;2022-10-04T10:29:36;4.60;;;1.60;;
37069;SDS011;22984;48.862;9.320;2022-10-04T10:32:22;4.78;;;1.90;;
37069;SDS011;22984;48.862;9.320;2022-10-04T10:42:56;4.43;;;1.73;;
37069;SDS011;22984;48.862;9.320;2022-10-04T10:45:31;4.88;;;1.80;;
37069;SDS011;22984;48.862;9.320;2022-10-04T10:51:01;4.15;;;1.85;;
37069;SDS011;22984;48.862;9.320;2022-10-04T11:02:13;6.78;;;1.90;;
37069;SDS011;22984;48.862;9.320;2022-10-04T11:07:28;7.53;;;1.40;;
37069;SDS011;22984;48.862;9.320;2022-10-04T11:10:03;3.15;;;1.55;;
37069;SDS011;22984;48.862;9.320;2022-10-04T11:12:55;5.03;;;1.30;;
37069;SDS011;22984;48.862;9.320;2022-10-04T11:18:03;5.22;;;1.73;;
37069;SDS011;22984;48.862;9.320;2022-10-04T11:28:36;2.57;;;1.83;;
37069;SDS011;22984;48.862;9.320;2022-10-04T11:53:20;2.80;;;1.50;;
37069;SDS011;22984;48.862;9.320;2022-10-04T12:09:14;3.13;;;1.33;;
37069;SDS011;22984;48.862;9.320;2022-10-04T12:17:28;3.58;;;1.65;;
37069;SDS011;22984;48.862;9.320;2022-10-04T12:30:13;2.25;;;1.13;;
37069;SDS011;22984;48.862;9.320;2022-10-04T12:35:25;1.75;;;1.50;;
37069;SDS011;22984;48.862;9.320;2022-10-04T12:40:50;3.03;;;1.50;;
37069;SDS011;22984;48.862;9.320;2022-10-04T12:45:57;4.53;;;1.80;;
37069;SDS011;22984;48.862;9.320;2022-10-04T12:56:13;3.80;;;1.33;;
37069;SDS011;22984;48.862;9.320;2022-10-04T12:59:06;4.90;;;1.33;;
37069;SDS011;22984;48.862;9.320;2022-10-04T13:06:38;3.90;;;1.20;;
37069;SDS011;22984;48.862;9.320;2022-10-04T13:09:11;3.88;;;1.38;;
37069;SDS011;22984;48.862;9.320;2022-10-04T13:11:46;1.88;;;1.15;;
37069;SDS011;22984;48.862;9.320;2022-10-04T13:14:22;5.80;;;1.20;;
37069;SDS011;22984;48.862;9.320;2022-10-04T13:16:59;4.68;;;1.10;;
37069;SDS011;22984;48.862;9.320;2022-10-04T13:19:33;3.05;;;1.52;;
37069;SDS011;22984;48.862;9.320;2022-10-04T13:27:30;3.88;;;1.17;;
37069;SDS011;22984;48.862;9.320;2022-10-04T13:30:12;4.47;;;1.27;;
37069;SDS011;22984;48.862;9.320;2022-10-04T13:33:23;3.43;;;1.60;;
37069;SDS011;22984;48.862;9.320;2022-10-04T13:40:49;4.75;;;1.55;;
37069;SDS011;22984;48.862;9.320;2022-10-04T14:04:19;2.17;;;1.13;;
37069;SDS011;22984;48.862;9.320;2022-10-04T14:12:14;2.27;;;0.80;;
37069;SDS011;22984;48.862;9.320;2022-10-04T14:22:32;2.95;;;1.08;;
37069;SDS011;22984;48.862;9.320;2022-10-04T14:25:26;1.70;;;1.00;;
37069;SDS011;22984;48.862;9.320;2022-10-04T14:35:40;3.60;;;1.00;;
37069;SDS011;22984;48.862;9.320;2022-10-04T14:54:34;3.30;;;1.10;;
37069;SDS011;22984;48.862;9.320;2022-10-04T15:02:34;2.75;;;1.10;;
37069;SDS011;22984;48.862;9.320;2022-10-04T15:07:35;1.48;;;0.93;;
37069;SDS011;22984;48.862;9.320;2022-10-04T15:10:22;3.35;;;0.90;;
37069;SDS011;22984;48.862;9.320;2022-10-04T15:13:02;2.88;;;0.60;;
37069;SDS011;22984;48.862;9.320;2022-10-04T15:18:33;1.50;;;0.80;;
37069;SDS011;22984;48.862;9.320;2022-10-04T15:23:50;2.77;;;1.10;;
37069;SDS011;22984;48.862;9.320;2022-10-04T15:31:18;3.10;;;0.90;;
37069;SDS011;22984;48.862;9.320;2022-10-04T15:50:02;6.75;;;1.92;;
37069;SDS011;22984;48.862;9.320;2022-10-04T16:00:22;3.37;;;1.13;;
37069;SDS011;22984;48.862;9.320;2022-10-04T16:05:42;5.40;;;1.90;;
37069;SDS011;22984;48.862;9.320;2022-10-04T16:15:42;1.67;;;1.00;;
37069;SDS011;22984;48.862;9.320;2022-10-04T16:25:50;3.78;;;1.50;;
37069;SDS011;22984;48.862;9.320;2022-10-04T16:28:20;3.03;;;1.10;;
37069;SDS011;22984;48.862;9.320;2022-10-04T16:36:24;3.27;;;1.10;;
37069;SDS011;22984;48.862;9.320;2022-10-04T16:38:55;3.03;;;1.15;;
37069;SDS011;22984;48.862;9.320;2022-10-04T16:42:03;2.20;;;0.93;;
37069;SDS011;22984;48.862;9.320;2022-10-04T16:44:35;6.13;;;1.08;;
37069;SDS011;22984;48.862;9.320;2022-10-04T16:49:50;3.42;;;1.17;;
37069;SDS011;22984;48.862;9.320;2022-10-04T16:55:10;3.83;;;1.70;;
37069;SDS011;22984;48.862;9.320;2022-10-04T16:57:44;4.05;;;1.60;;
37069;SDS011;22984;48.862;9.320;2022-10-04T17:00:30;2.72;;;1.50;;
37069;SDS011;22984;48.862;9.320;2022-10-04T17:03:05;5.70;;;1.42;;
37069;SDS011;22984;48.862;9.320;2022-10-04T17:08:23;2.72;;;1.42;;
37069;SDS011;22984;48.862;9.320;2022-10-04T17:11:55;4.10;;;1.40;;
37069;SDS011;22984;48.862;9.320;2022-10-04T17:13:53;3.35;;;1.17;;
37069;SDS011;22984;48.862;9.320;2022-10-04T17:16:34;3.83;;;1.30;;
37069;SDS011;22984;48.862;9.320;2022-10-04T17:24:18;2.40;;;1.60;;
37069;SDS011;22984;48.862;9.320;2022-10-04T17:31:56;3.88;;;2.17;;
37069;SDS011;22984;48.862;9.320;2022-10-04T17:34:37;2.28;;;1.80;;
37069;SDS011;22984;48.862;9.320;2022-10-04T17:39:47;6.70;;;3.40;;
37069;SDS011;22984;48.862;9.320;2022-10-04T17:44:56;4.38;;;3.13;;
37069;SDS011;22984;48.862;9.320;2022-10-04T17:51:08;3.42;;;2.78;;
37069;SDS011;22984;48.862;9.320;2022-10-04T17:53:26;3.40;;;2.90;;
37069;SDS011;22984;48.862;9.320;2022-10-04T17:56:11;8.10;;;2.90;;
37069;SDS011;22984;48.862;9.320;2022-10-04T17:58:42;4.50;;;2.63;;
37069;SDS011;22984;48.862;9.320;2022-10-04T18:03:45;4.20;;;2.28;;
37069;SDS011;22984;48.862;9.320;2022-10-04T18:06:18;5.30;;;2.57;;
37069;SDS011;22984;48.862;9.320;2022-10-04T18:08:51;7.70;;;3.53;;
37069;SDS011;22984;48.862;9.320;2022-10-04T18:11:22;3.58;;;3.17;;
37069;SDS011;22984;48.862;9.320;2022-10-04T18:13:53;7.22;;;5.03;;
37069;SDS011;22984;48.862;9.320;2022-10-04T18:16:31;11.40;;;8.63;;
37069;SDS011;22984;48.862;9.320;2022-10-04T18:19:07;5.82;;;4.07;;
37069;SDS011;22984;48.862;9.320;2022-10-04T18:21:47;4.82;;;3.22;;
37069;SDS011;22984;48.862;9.320;2022-10-04T18:24:18;3.17;;;2.30;;
37069;SDS011;22984;48.862;9.320;2022-10-04T18:26:58;3.70;;;2.30;;
37069;SDS011;22984;48.862;9.320;2022-10-04T18:29:34;3.00;;;2.43;;
37069;SDS011;22984;48.862;9.320;2022-10-04T18:32:13;4.60;;;3.00;;
37069;SDS011;22984;48.862;9.320;2022-10-04T18:34:39;3.55;;;2.90;;
37069;SDS011;22984;48.862;9.320;2022-10-04T18:37:18;3.47;;;2.90;;
37069;SDS011;22984;48.862;9.320;2022-10-04T18:39:46;3.25;;;2.42;;
37069;SDS011;22984;48.862;9.320;2022-10-04T18:42:24;3.28;;;2.47;;
37069;SDS011;22984;48.862;9.320;2022-10-04T18:44:56;4.30;;;2.70;;
37069;SDS011;22984;48.862;9.320;2022-10-04T18:47:28;4.00;;;3.17;;
37069;SDS011;22984;48.862;9.320;2022-10-04T18:49:59;5.17;;;3.87;;
37069;SDS011;22984;48.862;9.320;2022-10-04T18:52:38;5.10;;;2.10;;
37069;SDS011;22984;48.862;9.320;2022-10-04T19:01:02;3.90;;;2.30;;
37069;SDS011;22984;48.862;9.320;2022-10-04T19:03:52;5.05;;;2.03;;
37069;SDS011;22984;48.862;9.320;2022-10-04T19:06:25;3.78;;;2.40;;
37069;SDS011;22984;48.862;9.320;2022-10-04T19:11:54;2.67;;;2.10;;
37069;SDS011;22984;48.862;9.320;2022-10-04T19:14:24;2.10;;;1.90;;
37069;SDS011;22984;48.862;9.320;2022-10-04T19:24:46;4.05;;;2.25;;
37069;SDS011;22984;48.862;9.320;2022-10-04T19:37:44;3.35;;;2.40;;
37069;SDS011;22984;48.862;9.320;2022-10-04T19:40:27;3.40;;;2.13;;
37069;SDS011;22984;48.862;9.320;2022-10-04T19:43:14;3.72;;;2.85;;
37069;SDS011;22984;48.862;9.320;2022-10-04T19:48:30;3.65;;;2.33;;
37069;SDS011;22984;48.862;9.320;2022-10-04T19:51:08;4.30;;;2.35;;
37069;SDS011;22984;48.862;9.320;2022-10-04T19:53:39;3.40;;;2.40;;
37069;SDS011;22984;48.862;9.320;2022-10-04T19:56:10;2.63;;;2.40;;
37069;SDS011;22984;48.862;9.320;2022-10-04T19:58:41;2.72;;;2.35;;
37069;SDS011;22984;48.862;9.320;2022-10-04T20:01:14;3.38;;;3.08;;
37069;SDS011;22984;48.862;9.320;2022-10-04T20:03:41;3.38;;;2.55;;
37069;SDS011;22984;48.862;9.320;2022-10-04T20:06:07;5.78;;;1.92;;
37069;SDS011;22984;48.862;9.320;2022-10-04T20:13:38;4.55;;;2.60;;
37069;SDS011;22984;48.862;9.320;2022-10-04T20:16:04;2.90;;;2.53;;
37069;SDS011;22984;48.862;9.320;2022-10-04T20:26:06;3.10;;;2.80;;
37069;SDS011;22984;48.862;9.320;2022-10-04T20:31:51;13.30;;;7.93;;
37069;SDS011;22984;48.862;9.320;2022-10-04T20:33:51;4.78;;;4.32;;
37069;SDS011;22984;48.862;9.320;2022-10-04T20:38:44;4.05;;;3.72;;
37069;SDS011;22984;48.862;9.320;2022-10-04T20:47:21;6.80;;;6.10;;
37069;SDS011;22984;48.862;9.320;2022-10-04T20:49:50;9.80;;;4.80;;
37069;SDS011;22984;48.862;9.320;2022-10-04T20:52:18;5.78;;;5.05;;
37069;SDS011;22984;48.862;9.320;2022-10-04T20:54:50;7.75;;;5.90;;
37069;SDS011;22984;48.862;9.320;2022-10-04T20:57:17;6.90;;;5.25;;
37069;SDS011;22984;48.862;9.320;2022-10-04T20:59:43;7.20;;;5.88;;
37069;SDS011;22984;48.862;9.320;2022-10-04T21:02:12;8.00;;;5.43;;
37069;SDS011;22984;48.862;9.320;2022-10-04T21:04:39;7.68;;;4.88;;
37069;SDS011;22984;48.862;9.320;2022-10-04T21:07:08;6.57;;;4.78;;
37069;SDS011;22984;48.862;9.320;2022-10-04T21:09:36;7.30;;;4.50;;
37069;SDS011;22984;48.862;9.320;2022-10-04T21:12:03;9.85;;;5.03;;
37069;SDS011;22984;48.862;9.320;2022-10-04T21:14:30;7.90;;;5.13;;
37069;SDS011;22984;48.862;9.320;2022-10-04T21:16:57;5.88;;;5.28;;
37069;SDS011;22984;48.862;9.320;2022-10-04T21:22:03;14.77;;;13.00;;
37069;SDS011;22984;48.862;9.320;2022-10-04T21:24:33;6.95;;;5.85;;
37069;SDS011;22984;48.862;9.320;2022-10-04T21:27:02;6.88;;;5.57;;
37069;SDS011;22984;48.862;9.320;2022-10-04T21:29:29;8.38;;;5.75;;
37069;SDS011;22984;48.862;9.320;2022-10-04T21:31:55;8.23;;;5.80;;
37069;SDS011;22984;48.862;9.320;2022-10-04T21:34:22;6.70;;;5.47;;
37069;SDS011;22984;48.862;9.320;2022-10-04T21:36:48;8.77;;;5.30;;
37069;SDS011;22984;48.862;9.320;2022-10-04T21:39:14;9.03;;;5.30;;
37069;SDS011;22984;48.862;9.320;2022-10-04T21:41:40;9.48;;;6.43;;
37069;SDS011;22984;48.862;9.320;2022-10-04T21:44:06;7.63;;;5.45;;
37069;SDS011;22984;48.862;9.320;2022-10-04T21:46:33;8.57;;;5.80;;
37069;SDS011;22984;48.862;9.320;2022-10-04T21:48:59;6.88;;;5.38;;
37069;SDS011;22984;48.862;9.320;2022-10-04T21:51:25;8.20;;;5.87;;
37069;SDS011;22984;48.862;9.320;2022-10-04T21:53:51;5.95;;;5.30;;
37069;SDS011;22984;48.862;9.320;2022-10-04T21:56:17;6.03;;;5.50;;
37069;SDS011;22984;48.862;9.320;2022-10-04T21:58:43;7.22;;;5.50;;
37069;SDS011;22984;48.862;9.320;2022-10-04T22:01:09;7.10;;;5.50;;
37069;SDS011;22984;48.862;9.320;2022-10-04T22:03:35;6.93;;;6.37;;
37069;SDS011;22984;48.862;9.320;2022-10-04T22:06:01;7.30;;;6.55;;
37069;SDS011;22984;48.862;9.320;2022-10-04T22:08:27;7.75;;;6.97;;
37069;SDS011;22984;48.862;9.320;2022-10-04T22:10:53;7.70;;;6.68;;
37069;SDS011;22984;48.862;9.320;2022-10-04T22:13:19;7.78;;;6.95;;
37069;SDS011;22984;48.862;9.320;2022-10-04T22:15:45;7.23;;;6.40;;
37069;SDS011;22984;48.862;9.320;2022-10-04T22:18:11;8.93;;;5.88;;
37069;SDS011;22984;48.862;9.320;2022-10-04T22:20:37;9.50;;;6.18;;
37069;SDS011;22984;48.862;9.320;2022-10-04T22:23:05;6.93;;;5.75;;
37069;SDS011;22984;48.862;9.320;2022-10-04T22:25:35;9.20;;;6.25;;
37069;SDS011;22984;48.862;9.320;2022-10-04T22:28:01;7.73;;;5.90;;
37069;SDS011;22984;48.862;9.320;2022-10-04T22:30:33;9.65;;;6.43;;
37069;SDS011;22984;48.862;9.320;2022-10-04T22:33:00;7.43;;;5.90;;
37069;SDS011;22984;48.862;9.320;2022-10-04T22:35:28;6.73;;;6.00;;
37069;SDS011;22984;48.862;9.320;2022-10-04T22:37:54;8.13;;;6.13;;
37069;SDS011;22984;48.862;9.320;2022-10-04T22:40:22;7.55;;;6.30;;
37069;SDS011;22984;48.862;9.320;2022-10-04T22:42:51;7.78;;;6.80;;
37069;SDS011;22984;48.862;9.320;2022-10-04T22:45:20;7.45;;;6.55;;
37069;SDS011;22984;48.862;9.320;2022-10-04T22:47:46;8.35;;;6.63;;
37069;SDS011;22984;48.862;9.320;2022-10-04T22:50:18;7.80;;;7.07;;
37069;SDS011;22984;48.862;9.320;2022-10-04T22:52:47;6.95;;;6.45;;
37069;SDS011;22984;48.862;9.320;2022-10-04T22:55:13;8.90;;;7.07;;
37069;SDS011;22984;48.862;9.320;2022-10-04T22:57:42;8.73;;;7.00;;
37069;SDS011;22984;48.862;9.320;2022-10-04T23:00:09;11.50;;;7.20;;
37069;SDS011;22984;48.862;9.320;2022-10-04T23:02:35;10.20;;;6.70;;
37069;SDS011;22984;48.862;9.320;2022-10-04T23:05:14;8.80;;;6.85;;
37069;SDS011;22984;48.862;9.320;2022-10-04T23:07:44;12.05;;;7.55;;
37069;SDS011;22984;48.862;9.320;2022-10-04T23:10:11;9.00;;;7.40;;
37069;SDS011;22984;48.862;9.320;2022-10-04T23:12:38;10.95;;;7.78;;
37069;SDS011;22984;48.862;9.320;2022-10-04T23:15:05;7.80;;;7.10;;
37069;SDS011;22984;48.862;9.320;2022-10-04T23:17:35;10.43;;;7.13;;
37069;SDS011;22984;48.862;9.320;2022-10-04T23:20:09;7.75;;;6.95;;
37069;SDS011;22984;48.862;9.320;2022-10-04T23:22:39;9.48;;;8.43;;
37069;SDS011;22984;48.862;9.320;2022-10-04T23:25:17;15.05;;;9.77;;
37069;SDS011;22984;48.862;9.320;2022-10-04T23:27:44;13.57;;;9.52;;
37069;SDS011;22984;48.862;9.320;2022-10-04T23:30:15;10.48;;;8.65;;
37069;SDS011;22984;48.862;9.320;2022-10-04T23:32:46;14.45;;;9.15;;
37069;SDS011;22984;48.862;9.320;2022-10-04T23:35:19;20.30;;;10.32;;
37069;SDS011;22984;48.862;9.320;2022-10-04T23:37:46;15.47;;;10.53;;
37069;SDS011;22984;48.862;9.320;2022-10-04T23:40:14;15.32;;;11.02;;
37069;SDS011;22984;48.862;9.320;2022-10-04T23:42:40;14.43;;;10.82;;
37069;SDS011;22984;48.862;9.320;2022-10-04T23:45:25;19.43;;;12.43;;
37069;SDS011;22984;48.862;9.320;2022-10-04T23:47:53;19.02;;;12.30;;
37069;SDS011;22984;48.862;9.320;2022-10-04T23:50:30;19.48;;;12.95;;
37069;SDS011;22984;48.862;9.320;2022-10-04T23:52:58;16.80;;;11.77;;
37069;SDS011;22984;48.862;9.320;2022-10-04T23:55:29;20.48;;;12.85;;
37069;SDS011;22984;48.862;9.320;2022-10-04T23:57:55;21.25;;;14.15;;
